Terminal Aerodrome Forecast
Issued by NWS Jackson, MS

Current Version | Previous Version | Text Only | Print | Product List | Glossary On
Versions: 1 2 3 4 5 6 7 8 9 10 11 12 13
000
FTUS44 KJAN 241100
TAFMEI
TAF
KMEI 241121Z 2412/2512 22010KT P6SM SCT020
     FM241500 29013G20KT P6SM SCT030
     FM242300 33004KT P6SM SKC=

USA.gov is the U.S. government's official web portal to all federal, state and local government web resources and services.